sensor_id;sensor_type;location;lat;lon;timestamp;temperature;humidity
7155;DHT22;3619;53.784;10.440;2022-09-23T00:01:48;10.00;99.90
7155;DHT22;3619;53.784;10.440;2022-09-23T00:04:14;10.00;99.90
7155;DHT22;3619;53.784;10.440;2022-09-23T00:06:41;10.00;99.90
7155;DHT22;3619;53.784;10.440;2022-09-23T00:09:09;10.00;99.90
7155;DHT22;3619;53.784;10.440;2022-09-23T00:11:36;10.00;99.90
7155;DHT22;3619;53.784;10.440;2022-09-23T00:14:03;9.90;99.90
7155;DHT22;3619;53.784;10.440;2022-09-23T00:16:33;9.90;99.90
7155;DHT22;3619;53.784;10.440;2022-09-23T00:19:00;9.90;99.90
7155;DHT22;3619;53.784;10.440;2022-09-23T00:21:28;9.90;99.90
7155;DHT22;3619;53.784;10.440;2022-09-23T00:23:55;9.90;99.90
7155;DHT22;3619;53.784;10.440;2022-09-23T00:26:22;9.80;99.90
7155;DHT22;3619;53.784;10.440;2022-09-23T00:28:49;9.80;99.90
7155;DHT22;3619;53.784;10.440;2022-09-23T00:31:18;9.80;99.90
7155;DHT22;3619;53.784;10.440;2022-09-23T00:33:53;9.80;99.90
7155;DHT22;3619;53.784;10.440;2022-09-23T00:36:21;9.80;99.90
7155;DHT22;3619;53.784;10.440;2022-09-23T00:38:49;9.80;99.90
7155;DHT22;3619;53.784;10.440;2022-09-23T00:41:16;9.80;99.90
7155;DHT22;3619;53.784;10.440;2022-09-23T00:43:45;9.70;99.90
7155;DHT22;3619;53.784;10.440;2022-09-23T00:46:14;9.70;99.90
7155;DHT22;3619;53.784;10.440;2022-09-23T00:48:43;9.70;99.90
7155;DHT22;3619;53.784;10.440;2022-09-23T00:51:14;9.70;99.90
7155;DHT22;3619;53.784;10.440;2022-09-23T00:53:44;9.70;99.90
7155;DHT22;3619;53.784;10.440;2022-09-23T00:56:12;9.70;99.90
7155;DHT22;3619;53.784;10.440;2022-09-23T00:58:42;9.70;99.90
7155;DHT22;3619;53.784;10.440;2022-09-23T01:01:12;9.60;99.90
7155;DHT22;3619;53.784;10.440;2022-09-23T01:03:40;9.60;99.90
7155;DHT22;3619;53.784;10.440;2022-09-23T01:06:09;9.50;99.90
7155;DHT22;3619;53.784;10.440;2022-09-23T01:08:39;9.50;99.90
7155;DHT22;3619;53.784;10.440;2022-09-23T01:11:28;9.50;99.90
7155;DHT22;3619;53.784;10.440;2022-09-23T01:14:02;9.50;99.90
7155;DHT22;3619;53.784;10.440;2022-09-23T01:16:35;9.50;99.90
7155;DHT22;3619;53.784;10.440;2022-09-23T01:19:10;9.50;99.90
7155;DHT22;3619;53.784;10.440;2022-09-23T01:21:47;9.50;99.90
7155;DHT22;3619;53.784;10.440;2022-09-23T01:24:42;9.40;99.90
7155;DHT22;3619;53.784;10.440;2022-09-23T01:27:17;9.40;99.90
7155;DHT22;3619;53.784;10.440;2022-09-23T01:30:16;9.40;99.90
7155;DHT22;3619;53.784;10.440;2022-09-23T01:32:55;9.40;99.90
7155;DHT22;3619;53.784;10.440;2022-09-23T01:35:26;9.30;99.90
7155;DHT22;3619;53.784;10.440;2022-09-23T01:37:59;9.30;99.90
7155;DHT22;3619;53.784;10.440;2022-09-23T01:40:35;9.30;99.90
7155;DHT22;3619;53.784;10.440;2022-09-23T01:43:10;9.30;99.90
7155;DHT22;3619;53.784;10.440;2022-09-23T01:45:43;9.30;99.90
7155;DHT22;3619;53.784;10.440;2022-09-23T01:48:16;9.20;99.90
7155;DHT22;3619;53.784;10.440;2022-09-23T01:50:47;9.20;99.90
7155;DHT22;3619;53.784;10.440;2022-09-23T01:53:30;9.20;99.90
7155;DHT22;3619;53.784;10.440;2022-09-23T01:56:00;9.20;99.90
7155;DHT22;3619;53.784;10.440;2022-09-23T01:58:32;9.20;99.90
7155;DHT22;3619;53.784;10.440;2022-09-23T02:01:02;9.10;99.90
7155;DHT22;3619;53.784;10.440;2022-09-23T02:03:36;9.10;99.90
7155;DHT22;3619;53.784;10.440;2022-09-23T02:06:10;9.10;99.90
7155;DHT22;3619;53.784;10.440;2022-09-23T02:08:43;9.10;99.90
7155;DHT22;3619;53.784;10.440;2022-09-23T02:11:13;9.10;99.90
7155;DHT22;3619;53.784;10.440;2022-09-23T02:13:45;9.10;99.90
7155;DHT22;3619;53.784;10.440;2022-09-23T02:16:15;9.10;99.90
7155;DHT22;3619;53.784;10.440;2022-09-23T02:18:50;9.10;99.90
7155;DHT22;3619;53.784;10.440;2022-09-23T02:21:20;9.10;99.90
7155;DHT22;3619;53.784;10.440;2022-09-23T02:23:53;9.10;99.90
7155;DHT22;3619;53.784;10.440;2022-09-23T02:26:27;9.00;99.90
7155;DHT22;3619;53.784;10.440;2022-09-23T02:29:04;9.00;99.90
7155;DHT22;3619;53.784;10.440;2022-09-23T02:31:38;9.00;99.90
7155;DHT22;3619;53.784;10.440;2022-09-23T02:34:15;9.00;99.90
7155;DHT22;3619;53.784;10.440;2022-09-23T02:36:54;9.00;99.90
7155;DHT22;3619;53.784;10.440;2022-09-23T02:39:29;9.00;99.90
7155;DHT22;3619;53.784;10.440;2022-09-23T02:42:05;9.00;99.90
7155;DHT22;3619;53.784;10.440;2022-09-23T02:44:35;9.00;99.90
7155;DHT22;3619;53.784;10.440;2022-09-23T02:47:02;9.00;99.90
7155;DHT22;3619;53.784;10.440;2022-09-23T02:49:31;9.00;99.90
7155;DHT22;3619;53.784;10.440;2022-09-23T02:52:00;9.00;99.90
7155;DHT22;3619;53.784;10.440;2022-09-23T02:54:30;8.90;99.90
7155;DHT22;3619;53.784;10.440;2022-09-23T02:56:59;8.90;99.90
7155;DHT22;3619;53.784;10.440;2022-09-23T02:59:27;8.90;99.90
7155;DHT22;3619;53.784;10.440;2022-09-23T03:02:09;8.90;99.90
7155;DHT22;3619;53.784;10.440;2022-09-23T03:04:46;8.90;99.90
7155;DHT22;3619;53.784;10.440;2022-09-23T03:07:17;8.80;99.90
7155;DHT22;3619;53.784;10.440;2022-09-23T03:09:50;8.80;99.90
7155;DHT22;3619;53.784;10.440;2022-09-23T03:12:24;8.80;99.90
7155;DHT22;3619;53.784;10.440;2022-09-23T03:15:05;8.80;99.90
7155;DHT22;3619;53.784;10.440;2022-09-23T03:17:35;8.70;99.90
7155;DHT22;3619;53.784;10.440;2022-09-23T03:20:09;8.70;99.90
7155;DHT22;3619;53.784;10.440;2022-09-23T03:22:41;8.70;99.90
7155;DHT22;3619;53.784;10.440;2022-09-23T03:25:13;8.70;99.90
7155;DHT22;3619;53.784;10.440;2022-09-23T03:27:42;8.70;99.90
7155;DHT22;3619;53.784;10.440;2022-09-23T03:30:11;8.70;99.90
7155;DHT22;3619;53.784;10.440;2022-09-23T03:32:42;8.60;99.90
7155;DHT22;3619;53.784;10.440;2022-09-23T03:35:12;8.60;99.90
7155;DHT22;3619;53.784;10.440;2022-09-23T03:37:45;8.60;99.90
7155;DHT22;3619;53.784;10.440;2022-09-23T03:40:17;8.50;99.90
7155;DHT22;3619;53.784;10.440;2022-09-23T03:42:47;8.50;99.90
7155;DHT22;3619;53.784;10.440;2022-09-23T03:45:19;8.50;99.90
7155;DHT22;3619;53.784;10.440;2022-09-23T03:47:50;8.50;99.90
7155;DHT22;3619;53.784;10.440;2022-09-23T03:50:18;8.40;99.90
7155;DHT22;3619;53.784;10.440;2022-09-23T03:52:45;8.40;99.90
7155;DHT22;3619;53.784;10.440;2022-09-23T03:55:16;8.40;99.90
7155;DHT22;3619;53.784;10.440;2022-09-23T03:57:43;8.40;99.90
7155;DHT22;3619;53.784;10.440;2022-09-23T04:00:12;8.40;99.90
7155;DHT22;3619;53.784;10.440;2022-09-23T04:02:39;8.40;99.90
7155;DHT22;3619;53.784;10.440;2022-09-23T04:05:07;8.40;99.90
7155;DHT22;3619;53.784;10.440;2022-09-23T04:07:36;8.30;99.90
7155;DHT22;3619;53.784;10.440;2022-09-23T04:10:03;8.30;99.90
7155;DHT22;3619;53.784;10.440;2022-09-23T04:12:30;8.30;99.90
7155;DHT22;3619;53.784;10.440;2022-09-23T04:14:57;8.30;99.90
7155;DHT22;3619;53.784;10.440;2022-09-23T04:17:24;8.30;99.90
7155;DHT22;3619;53.784;10.440;2022-09-23T04:19:51;8.30;99.90
7155;DHT22;3619;53.784;10.440;2022-09-23T04:22:17;8.30;99.90
7155;DHT22;3619;53.784;10.440;2022-09-23T04:24:46;8.40;99.90
7155;DHT22;3619;53.784;10.440;2022-09-23T04:27:13;8.40;99.90
7155;DHT22;3619;53.784;10.440;2022-09-23T04:29:40;8.40;99.90
7155;DHT22;3619;53.784;10.440;2022-09-23T04:32:07;8.40;99.90
7155;DHT22;3619;53.784;10.440;2022-09-23T04:34:34;8.40;99.90
7155;DHT22;3619;53.784;10.440;2022-09-23T04:37:00;8.50;99.90
7155;DHT22;3619;53.784;10.440;2022-09-23T04:39:27;8.50;99.90
7155;DHT22;3619;53.784;10.440;2022-09-23T04:41:55;8.50;99.90
7155;DHT22;3619;53.784;10.440;2022-09-23T04:44:22;8.60;99.90
7155;DHT22;3619;53.784;10.440;2022-09-23T04:46:49;8.60;99.90
7155;DHT22;3619;53.784;10.440;2022-09-23T04:49:16;8.60;99.90
7155;DHT22;3619;53.784;10.440;2022-09-23T04:51:43;8.60;99.90
7155;DHT22;3619;53.784;10.440;2022-09-23T04:54:10;8.60;99.90
7155;DHT22;3619;53.784;10.440;2022-09-23T04:56:38;8.70;99.90
7155;DHT22;3619;53.784;10.440;2022-09-23T04:59:07;8.70;99.90
7155;DHT22;3619;53.784;10.440;2022-09-23T05:01:33;8.70;99.90
7155;DHT22;3619;53.784;10.440;2022-09-23T05:04:02;8.70;99.90
7155;DHT22;3619;53.784;10.440;2022-09-23T05:06:32;8.80;99.90
7155;DHT22;3619;53.784;10.440;2022-09-23T05:09:04;8.80;99.90
7155;DHT22;3619;53.784;10.440;2022-09-23T05:11:31;8.80;99.90
7155;DHT22;3619;53.784;10.440;2022-09-23T05:13:58;8.80;99.90
7155;DHT22;3619;53.784;10.440;2022-09-23T05:16:27;8.90;99.90
7155;DHT22;3619;53.784;10.440;2022-09-23T05:18:54;8.90;99.90
7155;DHT22;3619;53.784;10.440;2022-09-23T05:21:23;8.80;99.90
7155;DHT22;3619;53.784;10.440;2022-09-23T05:23:54;8.90;99.90
7155;DHT22;3619;53.784;10.440;2022-09-23T05:26:24;8.90;99.90
7155;DHT22;3619;53.784;10.440;2022-09-23T05:28:52;8.90;99.90
7155;DHT22;3619;53.784;10.440;2022-09-23T05:31:22;8.90;99.90
7155;DHT22;3619;53.784;10.440;2022-09-23T05:33:52;8.90;99.90
7155;DHT22;3619;53.784;10.440;2022-09-23T05:36:21;8.90;99.90
7155;DHT22;3619;53.784;10.440;2022-09-23T05:38:49;8.90;99.90
7155;DHT22;3619;53.784;10.440;2022-09-23T05:41:20;8.90;99.90
7155;DHT22;3619;53.784;10.440;2022-09-23T05:43:48;8.90;99.90
7155;DHT22;3619;53.784;10.440;2022-09-23T05:46:18;8.90;99.90
7155;DHT22;3619;53.784;10.440;2022-09-23T05:48:45;8.90;99.90
7155;DHT22;3619;53.784;10.440;2022-09-23T05:51:15;8.90;99.90
7155;DHT22;3619;53.784;10.440;2022-09-23T05:53:44;9.00;99.90
7155;DHT22;3619;53.784;10.440;2022-09-23T05:56:12;9.00;99.90
7155;DHT22;3619;53.784;10.440;2022-09-23T05:58:39;9.00;99.90
7155;DHT22;3619;53.784;10.440;2022-09-23T06:01:13;9.10;99.90
7155;DHT22;3619;53.784;10.440;2022-09-23T06:03:47;9.10;99.90
7155;DHT22;3619;53.784;10.440;2022-09-23T06:06:17;9.20;99.90
7155;DHT22;3619;53.784;10.440;2022-09-23T06:08:45;9.20;99.90
7155;DHT22;3619;53.784;10.440;2022-09-23T06:11:12;9.30;99.90
7155;DHT22;3619;53.784;10.440;2022-09-23T06:13:40;9.30;99.90
7155;DHT22;3619;53.784;10.440;2022-09-23T06:16:09;9.40;99.90
7155;DHT22;3619;53.784;10.440;2022-09-23T06:18:38;9.50;99.90
7155;DHT22;3619;53.784;10.440;2022-09-23T06:21:06;9.50;99.90
7155;DHT22;3619;53.784;10.440;2022-09-23T06:23:34;9.50;99.90
7155;DHT22;3619;53.784;10.440;2022-09-23T06:26:02;9.60;99.90
7155;DHT22;3619;53.784;10.440;2022-09-23T06:28:30;9.60;99.90
7155;DHT22;3619;53.784;10.440;2022-09-23T06:30:58;9.70;99.90
7155;DHT22;3619;53.784;10.440;2022-09-23T06:33:26;9.70;99.90
7155;DHT22;3619;53.784;10.440;2022-09-23T06:35:56;9.80;99.90
7155;DHT22;3619;53.784;10.440;2022-09-23T06:38:23;9.80;99.90
7155;DHT22;3619;53.784;10.440;2022-09-23T06:40:55;9.90;99.90
7155;DHT22;3619;53.784;10.440;2022-09-23T06:43:24;10.00;99.90
7155;DHT22;3619;53.784;10.440;2022-09-23T06:45:51;10.00;99.90
7155;DHT22;3619;53.784;10.440;2022-09-23T06:48:18;10.10;99.90
7155;DHT22;3619;53.784;10.440;2022-09-23T06:50:45;10.10;99.90
7155;DHT22;3619;53.784;10.440;2022-09-23T06:53:14;10.10;99.90
7155;DHT22;3619;53.784;10.440;2022-09-23T06:55:40;10.10;99.90
7155;DHT22;3619;53.784;10.440;2022-09-23T06:58:09;10.20;99.90
7155;DHT22;3619;53.784;10.440;2022-09-23T07:00:36;10.20;99.90
7155;DHT22;3619;53.784;10.440;2022-09-23T07:03:05;10.10;99.90
7155;DHT22;3619;53.784;10.440;2022-09-23T07:05:32;10.10;99.90
7155;DHT22;3619;53.784;10.440;2022-09-23T07:07:59;10.20;99.90
7155;DHT22;3619;53.784;10.440;2022-09-23T07:10:26;10.30;99.90
7155;DHT22;3619;53.784;10.440;2022-09-23T07:12:53;10.40;99.90
7155;DHT22;3619;53.784;10.440;2022-09-23T07:15:21;10.40;99.90
7155;DHT22;3619;53.784;10.440;2022-09-23T07:17:48;10.60;99.90
7155;DHT22;3619;53.784;10.440;2022-09-23T07:20:15;10.70;99.90
7155;DHT22;3619;53.784;10.440;2022-09-23T07:22:48;10.70;99.90
7155;DHT22;3619;53.784;10.440;2022-09-23T07:25:15;10.80;99.90
7155;DHT22;3619;53.784;10.440;2022-09-23T07:27:42;10.90;99.90
7155;DHT22;3619;53.784;10.440;2022-09-23T07:30:09;11.10;99.90
7155;DHT22;3619;53.784;10.440;2022-09-23T07:32:37;11.30;99.90
7155;DHT22;3619;53.784;10.440;2022-09-23T07:35:05;11.50;99.90
7155;DHT22;3619;53.784;10.440;2022-09-23T07:37:32;11.70;99.90
7155;DHT22;3619;53.784;10.440;2022-09-23T07:40:00;12.00;99.90
7155;DHT22;3619;53.784;10.440;2022-09-23T07:42:27;12.10;99.90
7155;DHT22;3619;53.784;10.440;2022-09-23T07:44:54;12.30;99.90
7155;DHT22;3619;53.784;10.440;2022-09-23T07:47:21;12.40;99.90
7155;DHT22;3619;53.784;10.440;2022-09-23T07:49:50;12.40;99.90
7155;DHT22;3619;53.784;10.440;2022-09-23T07:52:18;12.30;99.90
7155;DHT22;3619;53.784;10.440;2022-09-23T07:54:46;12.30;99.90
7155;DHT22;3619;53.784;10.440;2022-09-23T07:57:13;12.30;99.90
7155;DHT22;3619;53.784;10.440;2022-09-23T07:59:39;12.30;99.90
7155;DHT22;3619;53.784;10.440;2022-09-23T08:02:08;12.40;99.90
7155;DHT22;3619;53.784;10.440;2022-09-23T08:04:35;12.40;99.90
7155;DHT22;3619;53.784;10.440;2022-09-23T08:07:04;12.40;99.90
7155;DHT22;3619;53.784;10.440;2022-09-23T08:09:36;12.40;99.90
7155;DHT22;3619;53.784;10.440;2022-09-23T08:12:04;12.40;99.90
7155;DHT22;3619;53.784;10.440;2022-09-23T08:14:30;12.40;99.90
7155;DHT22;3619;53.784;10.440;2022-09-23T08:16:57;12.50;99.90
7155;DHT22;3619;53.784;10.440;2022-09-23T08:19:24;12.50;99.90
7155;DHT22;3619;53.784;10.440;2022-09-23T08:21:51;12.50;99.90
7155;DHT22;3619;53.784;10.440;2022-09-23T08:24:21;12.60;99.90
7155;DHT22;3619;53.784;10.440;2022-09-23T08:26:50;12.70;99.90
7155;DHT22;3619;53.784;10.440;2022-09-23T08:29:19;12.80;99.90
7155;DHT22;3619;53.784;10.440;2022-09-23T08:31:46;12.80;99.90
7155;DHT22;3619;53.784;10.440;2022-09-23T08:34:14;13.00;99.90
7155;DHT22;3619;53.784;10.440;2022-09-23T08:36:41;13.20;99.90
7155;DHT22;3619;53.784;10.440;2022-09-23T08:39:11;13.30;99.90
7155;DHT22;3619;53.784;10.440;2022-09-23T08:41:45;13.30;99.90
7155;DHT22;3619;53.784;10.440;2022-09-23T08:44:18;13.30;99.90
7155;DHT22;3619;53.784;10.440;2022-09-23T08:46:50;13.40;99.90
7155;DHT22;3619;53.784;10.440;2022-09-23T08:49:24;13.50;99.90
7155;DHT22;3619;53.784;10.440;2022-09-23T08:51:54;13.60;99.90
7155;DHT22;3619;53.784;10.440;2022-09-23T08:54:21;13.90;99.90
7155;DHT22;3619;53.784;10.440;2022-09-23T08:56:55;14.10;99.90
7155;DHT22;3619;53.784;10.440;2022-09-23T08:59:26;14.30;99.90
7155;DHT22;3619;53.784;10.440;2022-09-23T09:01:58;14.30;99.90
7155;DHT22;3619;53.784;10.440;2022-09-23T09:04:31;14.40;99.90
7155;DHT22;3619;53.784;10.440;2022-09-23T09:07:08;14.40;99.90
7155;DHT22;3619;53.784;10.440;2022-09-23T09:09:41;14.40;99.90
7155;DHT22;3619;53.784;10.440;2022-09-23T09:12:15;14.50;99.90
7155;DHT22;3619;53.784;10.440;2022-09-23T09:14:48;14.60;99.90
7155;DHT22;3619;53.784;10.440;2022-09-23T09:17:22;14.70;99.90
7155;DHT22;3619;53.784;10.440;2022-09-23T09:19:55;14.70;99.90
7155;DHT22;3619;53.784;10.440;2022-09-23T09:22:41;14.90;99.90
7155;DHT22;3619;53.784;10.440;2022-09-23T09:25:18;15.10;99.90
7155;DHT22;3619;53.784;10.440;2022-09-23T09:27:50;15.20;99.90
7155;DHT22;3619;53.784;10.440;2022-09-23T09:30:17;15.30;99.90
7155;DHT22;3619;53.784;10.440;2022-09-23T09:32:47;15.40;99.90
7155;DHT22;3619;53.784;10.440;2022-09-23T09:35:20;15.60;99.90
7155;DHT22;3619;53.784;10.440;2022-09-23T09:37:49;15.70;99.90
7155;DHT22;3619;53.784;10.440;2022-09-23T09:40:16;15.90;99.90
7155;DHT22;3619;53.784;10.440;2022-09-23T09:42:46;16.00;99.90
7155;DHT22;3619;53.784;10.440;2022-09-23T09:45:20;16.20;99.90
7155;DHT22;3619;53.784;10.440;2022-09-23T09:47:55;16.30;99.90
7155;DHT22;3619;53.784;10.440;2022-09-23T09:50:44;16.50;99.90
7155;DHT22;3619;53.784;10.440;2022-09-23T09:53:23;16.70;99.90
7155;DHT22;3619;53.784;10.440;2022-09-23T09:55:59;16.70;99.90
7155;DHT22;3619;53.784;10.440;2022-09-23T09:58:29;16.80;99.90
7155;DHT22;3619;53.784;10.440;2022-09-23T10:00:59;16.90;99.90
7155;DHT22;3619;53.784;10.440;2022-09-23T10:03:36;17.10;99.90
7155;DHT22;3619;53.784;10.440;2022-09-23T10:06:20;17.40;99.90
7155;DHT22;3619;53.784;10.440;2022-09-23T10:09:13;17.40;99.90
7155;DHT22;3619;53.784;10.440;2022-09-23T10:11:41;17.60;99.90
7155;DHT22;3619;53.784;10.440;2022-09-23T10:14:11;17.70;99.90
7155;DHT22;3619;53.784;10.440;2022-09-23T10:16:44;17.80;99.90
7155;DHT22;3619;53.784;10.440;2022-09-23T10:19:23;18.00;99.90
7155;DHT22;3619;53.784;10.440;2022-09-23T10:21:52;18.30;99.90
7155;DHT22;3619;53.784;10.440;2022-09-23T10:24:26;18.50;99.90
7155;DHT22;3619;53.784;10.440;2022-09-23T10:26:57;18.60;99.90
7155;DHT22;3619;53.784;10.440;2022-09-23T10:29:29;18.60;99.90
7155;DHT22;3619;53.784;10.440;2022-09-23T10:32:24;18.40;99.90
7155;DHT22;3619;53.784;10.440;2022-09-23T10:34:54;18.40;99.90
7155;DHT22;3619;53.784;10.440;2022-09-23T10:37:34;18.30;99.90
7155;DHT22;3619;53.784;10.440;2022-09-23T10:40:12;18.30;99.90
7155;DHT22;3619;53.784;10.440;2022-09-23T10:43:10;18.30;99.90
7155;DHT22;3619;53.784;10.440;2022-09-23T10:46:02;18.20;99.90
7155;DHT22;3619;53.784;10.440;2022-09-23T10:49:08;18.20;99.90
7155;DHT22;3619;53.784;10.440;2022-09-23T10:51:44;18.20;99.90
7155;DHT22;3619;53.784;10.440;2022-09-23T10:54:19;18.40;99.90
7155;DHT22;3619;53.784;10.440;2022-09-23T10:56:51;18.50;99.90
7155;DHT22;3619;53.784;10.440;2022-09-23T10:59:40;18.70;99.90
7155;DHT22;3619;53.784;10.440;2022-09-23T11:02:20;18.90;99.90
7155;DHT22;3619;53.784;10.440;2022-09-23T11:05:16;19.10;99.90
7155;DHT22;3619;53.784;10.440;2022-09-23T11:07:51;19.20;99.90
7155;DHT22;3619;53.784;10.440;2022-09-23T11:13:30;19.10;99.90
7155;DHT22;3619;53.784;10.440;2022-09-23T11:16:11;19.30;99.90
7155;DHT22;3619;53.784;10.440;2022-09-23T11:18:55;19.30;99.90
7155;DHT22;3619;53.784;10.440;2022-09-23T11:21:58;19.30;99.90
7155;DHT22;3619;53.784;10.440;2022-09-23T11:24:52;19.30;99.90
7155;DHT22;3619;53.784;10.440;2022-09-23T11:27:35;19.30;99.90
7155;DHT22;3619;53.784;10.440;2022-09-23T11:30:08;19.40;99.90
7155;DHT22;3619;53.784;10.440;2022-09-23T11:32:57;19.20;99.90
7155;DHT22;3619;53.784;10.440;2022-09-23T11:35:32;19.10;99.90
7155;DHT22;3619;53.784;10.440;2022-09-23T11:38:06;18.90;99.90
7155;DHT22;3619;53.784;10.440;2022-09-23T11:40:35;18.80;99.90
7155;DHT22;3619;53.784;10.440;2022-09-23T11:43:13;18.70;99.90
7155;DHT22;3619;53.784;10.440;2022-09-23T11:45:44;18.50;99.90
7155;DHT22;3619;53.784;10.440;2022-09-23T11:48:16;18.40;99.90
7155;DHT22;3619;53.784;10.440;2022-09-23T11:50:47;18.30;99.90
7155;DHT22;3619;53.784;10.440;2022-09-23T11:53:21;18.20;99.90
7155;DHT22;3619;53.784;10.440;2022-09-23T11:55:52;18.10;99.90
7155;DHT22;3619;53.784;10.440;2022-09-23T11:58:24;18.10;99.90
7155;DHT22;3619;53.784;10.440;2022-09-23T12:00:57;18.10;99.90
7155;DHT22;3619;53.784;10.440;2022-09-23T12:03:32;18.00;99.90
7155;DHT22;3619;53.784;10.440;2022-09-23T12:06:06;18.00;99.90
7155;DHT22;3619;53.784;10.440;2022-09-23T12:08:38;17.90;99.90
7155;DHT22;3619;53.784;10.440;2022-09-23T12:11:17;17.80;99.90
7155;DHT22;3619;53.784;10.440;2022-09-23T12:13:50;17.80;99.90
7155;DHT22;3619;53.784;10.440;2022-09-23T12:16:40;17.70;99.90
7155;DHT22;3619;53.784;10.440;2022-09-23T12:19:20;17.70;99.90
7155;DHT22;3619;53.784;10.440;2022-09-23T12:22:22;17.60;99.90
7155;DHT22;3619;53.784;10.440;2022-09-23T12:25:04;17.60;99.90
7155;DHT22;3619;53.784;10.440;2022-09-23T12:27:37;17.60;99.90
7155;DHT22;3619;53.784;10.440;2022-09-23T12:30:13;17.70;99.90
7155;DHT22;3619;53.784;10.440;2022-09-23T12:32:42;17.80;99.90
7155;DHT22;3619;53.784;10.440;2022-09-23T12:35:19;18.10;99.90
7155;DHT22;3619;53.784;10.440;2022-09-23T12:37:48;18.30;99.90
7155;DHT22;3619;53.784;10.440;2022-09-23T12:40:21;18.50;99.90
7155;DHT22;3619;53.784;10.440;2022-09-23T12:42:55;18.60;99.90
7155;DHT22;3619;53.784;10.440;2022-09-23T12:45:35;18.80;99.90
7155;DHT22;3619;53.784;10.440;2022-09-23T12:48:42;18.80;99.90
7155;DHT22;3619;53.784;10.440;2022-09-23T12:51:15;18.90;99.90
7155;DHT22;3619;53.784;10.440;2022-09-23T12:57:04;18.90;99.90
7155;DHT22;3619;53.784;10.440;2022-09-23T12:59:52;19.00;99.90
7155;DHT22;3619;53.784;10.440;2022-09-23T13:02:28;19.00;99.90
7155;DHT22;3619;53.784;10.440;2022-09-23T13:05:07;19.00;99.90
7155;DHT22;3619;53.784;10.440;2022-09-23T13:07:58;19.10;99.90
7155;DHT22;3619;53.784;10.440;2022-09-23T13:10:28;18.90;99.90
7155;DHT22;3619;53.784;10.440;2022-09-23T13:12:59;18.80;99.90
7155;DHT22;3619;53.784;10.440;2022-09-23T13:15:29;18.70;99.90
7155;DHT22;3619;53.784;10.440;2022-09-23T13:18:23;18.60;99.90
7155;DHT22;3619;53.784;10.440;2022-09-23T13:21:16;18.60;99.90
7155;DHT22;3619;53.784;10.440;2022-09-23T13:24:18;18.50;99.90
7155;DHT22;3619;53.784;10.440;2022-09-23T13:26:48;18.40;99.90
7155;DHT22;3619;53.784;10.440;2022-09-23T13:29:21;18.30;99.90
7155;DHT22;3619;53.784;10.440;2022-09-23T13:31:49;18.30;99.90
7155;DHT22;3619;53.784;10.440;2022-09-23T13:34:20;18.30;99.90
7155;DHT22;3619;53.784;10.440;2022-09-23T13:36:48;18.30;99.90
7155;DHT22;3619;53.784;10.440;2022-09-23T13:39:19;18.20;99.90
7155;DHT22;3619;53.784;10.440;2022-09-23T13:41:48;18.20;99.90
7155;DHT22;3619;53.784;10.440;2022-09-23T13:44:18;18.10;99.90
7155;DHT22;3619;53.784;10.440;2022-09-23T13:46:48;18.10;99.90
7155;DHT22;3619;53.784;10.440;2022-09-23T13:49:21;18.10;99.90
7155;DHT22;3619;53.784;10.440;2022-09-23T13:51:49;18.20;99.90
7155;DHT22;3619;53.784;10.440;2022-09-23T13:54:28;18.20;99.90
7155;DHT22;3619;53.784;10.440;2022-09-23T13:56:56;18.20;99.90
7155;DHT22;3619;53.784;10.440;2022-09-23T13:59:26;18.30;99.90
7155;DHT22;3619;53.784;10.440;2022-09-23T14:02:04;18.20;99.90
7155;DHT22;3619;53.784;10.440;2022-09-23T14:04:32;18.20;99.90
7155;DHT22;3619;53.784;10.440;2022-09-23T14:07:00;18.10;99.90
7155;DHT22;3619;53.784;10.440;2022-09-23T14:09:28;18.20;99.90
7155;DHT22;3619;53.784;10.440;2022-09-23T14:11:57;18.20;99.90
7155;DHT22;3619;53.784;10.440;2022-09-23T14:14:27;18.20;99.90
7155;DHT22;3619;53.784;10.440;2022-09-23T14:16:55;18.10;99.90
7155;DHT22;3619;53.784;10.440;2022-09-23T14:19:23;18.10;99.90
7155;DHT22;3619;53.784;10.440;2022-09-23T14:21:51;18.10;99.90
7155;DHT22;3619;53.784;10.440;2022-09-23T14:24:20;18.00;99.90
7155;DHT22;3619;53.784;10.440;2022-09-23T14:26:50;17.90;99.90
7155;DHT22;3619;53.784;10.440;2022-09-23T14:29:21;17.90;99.90
7155;DHT22;3619;53.784;10.440;2022-09-23T14:31:55;17.90;99.90
7155;DHT22;3619;53.784;10.440;2022-09-23T14:34:42;17.80;99.90
7155;DHT22;3619;53.784;10.440;2022-09-23T14:37:28;17.70;99.90
7155;DHT22;3619;53.784;10.440;2022-09-23T14:40:16;17.60;99.90
7155;DHT22;3619;53.784;10.440;2022-09-23T14:42:44;17.60;99.90
7155;DHT22;3619;53.784;10.440;2022-09-23T14:45:15;17.70;99.90
7155;DHT22;3619;53.784;10.440;2022-09-23T14:47:46;17.60;99.90
7155;DHT22;3619;53.784;10.440;2022-09-23T14:50:15;17.60;99.90
7155;DHT22;3619;53.784;10.440;2022-09-23T14:53:01;17.60;99.90
7155;DHT22;3619;53.784;10.440;2022-09-23T14:55:28;17.60;99.90
7155;DHT22;3619;53.784;10.440;2022-09-23T14:58:02;17.60;99.90
7155;DHT22;3619;53.784;10.440;2022-09-23T15:00:29;17.60;99.90
7155;DHT22;3619;53.784;10.440;2022-09-23T15:03:00;17.60;99.90
7155;DHT22;3619;53.784;10.440;2022-09-23T15:05:38;17.60;99.90
7155;DHT22;3619;53.784;10.440;2022-09-23T15:08:07;17.60;99.90
7155;DHT22;3619;53.784;10.440;2022-09-23T15:10:36;17.60;99.90
7155;DHT22;3619;53.784;10.440;2022-09-23T15:13:08;17.60;99.90
7155;DHT22;3619;53.784;10.440;2022-09-23T15:15:37;17.60;99.90
7155;DHT22;3619;53.784;10.440;2022-09-23T15:18:13;17.60;99.90
7155;DHT22;3619;53.784;10.440;2022-09-23T15:20:47;17.50;99.90
7155;DHT22;3619;53.784;10.440;2022-09-23T15:23:33;17.50;99.90
7155;DHT22;3619;53.784;10.440;2022-09-23T15:26:04;17.50;99.90
7155;DHT22;3619;53.784;10.440;2022-09-23T15:28:32;17.50;99.90
7155;DHT22;3619;53.784;10.440;2022-09-23T15:30:59;17.50;99.90
7155;DHT22;3619;53.784;10.440;2022-09-23T15:33:27;17.50;99.90
7155;DHT22;3619;53.784;10.440;2022-09-23T15:35:55;17.40;99.90
7155;DHT22;3619;53.784;10.440;2022-09-23T15:38:21;17.40;99.90
7155;DHT22;3619;53.784;10.440;2022-09-23T15:40:49;17.40;99.90
7155;DHT22;3619;53.784;10.440;2022-09-23T15:43:18;17.40;99.90
7155;DHT22;3619;53.784;10.440;2022-09-23T15:45:46;17.30;99.90
7155;DHT22;3619;53.784;10.440;2022-09-23T15:48:19;17.30;99.90
7155;DHT22;3619;53.784;10.440;2022-09-23T15:50:49;17.30;99.90
7155;DHT22;3619;53.784;10.440;2022-09-23T15:53:17;17.30;99.90
7155;DHT22;3619;53.784;10.440;2022-09-23T15:55:45;17.20;99.90
7155;DHT22;3619;53.784;10.440;2022-09-23T15:58:12;17.20;99.90
7155;DHT22;3619;53.784;10.440;2022-09-23T16:00:38;17.30;99.90
7155;DHT22;3619;53.784;10.440;2022-09-23T16:03:05;17.20;99.90
7155;DHT22;3619;53.784;10.440;2022-09-23T16:05:35;17.20;99.90
7155;DHT22;3619;53.784;10.440;2022-09-23T16:08:04;17.10;99.90
7155;DHT22;3619;53.784;10.440;2022-09-23T16:10:32;17.10;99.90
7155;DHT22;3619;53.784;10.440;2022-09-23T16:13:01;17.10;99.90
7155;DHT22;3619;53.784;10.440;2022-09-23T16:15:30;17.00;99.90
7155;DHT22;3619;53.784;10.440;2022-09-23T16:17:57;16.90;99.90
7155;DHT22;3619;53.784;10.440;2022-09-23T16:20:26;16.90;99.90
7155;DHT22;3619;53.784;10.440;2022-09-23T16:22:57;16.90;99.90
7155;DHT22;3619;53.784;10.440;2022-09-23T16:25:28;16.80;99.90
7155;DHT22;3619;53.784;10.440;2022-09-23T16:27:56;16.80;99.90
7155;DHT22;3619;53.784;10.440;2022-09-23T16:30:25;16.70;99.90